Time;durP1;ratioP1;P1;durP2;ratioP2;P2;SDS_P1;SDS_P2;PMS_P1;PMS_P2;Temp;Humidity;BMP_temperature;BMP_pressure;BME280_temperature;BME280_humidity;BME280_pressure;Samples;Min_cycle;Max_cycle;Signal;HPM_P1;HPM_P2
2022/11/26 00:02:25;;;;;;;102.93;64.63;;;6.50;99.90;;;;;;5015009;28;20079;-62
2022/11/26 00:04:52;;;;;;;83.28;54.75;;;6.50;99.90;;;;;;5014874;28;20033;-67
2022/11/26 00:07:21;;;;;;;92.03;58.72;;;6.50;99.90;;;;;;5014854;28;20062;-66
2022/11/26 00:09:49;;;;;;;73.72;49.55;;;6.50;99.90;;;;;;5014767;28;20058;-64
2022/11/26 00:12:19;;;;;;;69.55;45.25;;;6.40;99.90;;;;;;5014431;28;20049;-70
2022/11/26 00:14:46;;;;;;;61.78;43.42;;;6.40;99.90;;;;;;5014837;28;20030;-68
2022/11/26 00:17:15;;;;;;;54.35;38.13;;;6.40;99.90;;;;;;5014706;28;20061;-64
2022/11/26 00:19:43;;;;;;;50.83;35.90;;;6.40;99.90;;;;;;5014485;28;20041;-70
2022/11/26 00:22:25;;;;;;;48.95;34.85;;;6.40;99.90;;;;;;5014808;28;20108;-67
2022/11/26 00:24:52;;;;;;;49.45;34.42;;;6.40;99.90;;;;;;5014565;28;20033;-68
2022/11/26 00:27:18;;;;;;;49.63;33.70;;;6.30;99.90;;;;;;5014269;28;20037;-61
2022/11/26 00:29:44;;;;;;;50.40;33.83;;;6.30;99.90;;;;;;5014477;28;20080;-67
2022/11/26 00:32:18;;;;;;;56.95;36.67;;;6.30;99.90;;;;;;5014356;28;20029;-63
2022/11/26 00:34:44;;;;;;;50.85;34.65;;;6.20;99.90;;;;;;5014691;28;20206;-61
2022/11/26 00:37:34;;;;;;;49.65;33.33;;;6.30;99.90;;;;;;5014540;28;20448;-66
2022/11/26 00:40:01;;;;;;;48.05;33.67;;;6.20;99.90;;;;;;5014592;28;20022;-67
2022/11/26 00:42:26;;;;;;;60.05;39.63;;;6.20;99.90;;;;;;5013341;28;20028;-64
2022/11/26 00:44:52;;;;;;;75.10;45.78;;;6.10;99.90;;;;;;5014175;28;20100;-66
2022/11/26 00:47:18;;;;;;;122.40;74.30;;;6.10;99.90;;;;;;5014456;28;20069;-64
2022/11/26 00:49:43;;;;;;;144.18;89.72;;;6.00;99.90;;;;;;5014280;28;20030;-62
2022/11/26 00:52:33;;;;;;;150.48;91.40;;;5.80;99.90;;;;;;5014162;28;20042;-66
2022/11/26 00:55:01;;;;;;;141.63;89.78;;;5.50;99.90;;;;;;5014173;28;20026;-68
2022/11/26 00:57:27;;;;;;;122.28;77.43;;;5.50;99.90;;;;;;5013868;28;20076;-64
2022/11/26 00:59:53;;;;;;;105.75;64.05;;;5.50;99.90;;;;;;5013911;28;20025;-62
2022/11/26 01:02:18;;;;;;;96.85;59.30;;;5.50;99.90;;;;;;5013959;28;20108;-68
2022/11/26 01:04:44;;;;;;;83.15;52.63;;;5.60;99.90;;;;;;5014153;28;20022;-60
2022/11/26 01:07:10;;;;;;;89.28;55.15;;;5.70;99.90;;;;;;5013797;28;20026;-65
2022/11/26 01:09:35;;;;;;;103.03;65.47;;;5.80;99.90;;;;;;5014140;28;20022;-69
2022/11/26 01:12:01;;;;;;;71.70;48.30;;;5.80;99.90;;;;;;5013934;28;20503;-63
2022/11/26 01:14:27;;;;;;;65.82;44.42;;;5.70;99.90;;;;;;5013755;28;20507;-67
2022/11/26 01:16:55;;;;;;;61.25;41.90;;;5.70;99.90;;;;;;5045608;28;20254;-66
2022/11/26 01:19:20;;;;;;;71.00;45.88;;;5.70;99.90;;;;;;5013439;28;20088;-67
2022/11/26 01:21:46;;;;;;;67.40;42.90;;;5.70;99.90;;;;;;5013583;28;20037;-68
2022/11/26 01:24:11;;;;;;;76.05;46.88;;;5.70;99.90;;;;;;5013741;28;20381;-69
2022/11/26 01:26:40;;;;;;;60.05;40.60;;;5.80;99.90;;;;;;5013453;28;20022;-64
2022/11/26 01:29:05;;;;;;;50.20;34.83;;;5.70;99.90;;;;;;5013816;28;20044;-64
2022/11/26 01:31:32;;;;;;;58.58;38.50;;;5.70;99.90;;;;;;5013783;28;20113;-65
2022/11/26 01:33:57;;;;;;;68.72;43.85;;;5.70;99.90;;;;;;5013714;28;20443;-65
2022/11/26 01:36:31;;;;;;;58.95;38.42;;;5.70;99.90;;;;;;5013474;28;20038;-65
2022/11/26 01:39:03;;;;;;;61.28;39.03;;;5.70;99.90;;;;;;5013788;28;20384;-68
2022/11/26 01:41:48;;;;;;;71.43;42.40;;;5.70;99.90;;;;;;5013266;28;20065;-63
2022/11/26 01:44:22;;;;;;;72.55;44.90;;;5.70;99.90;;;;;;5013555;28;20503;-63
2022/11/26 01:46:48;;;;;;;60.67;40.63;;;5.60;99.90;;;;;;5013432;28;20449;-66
2022/11/26 01:49:28;;;;;;;66.55;43.08;;;5.50;99.90;;;;;;5013612;28;20029;-69
2022/11/26 01:51:59;;;;;;;71.72;42.65;;;5.50;99.90;;;;;;5013374;28;20055;-64
2022/11/26 01:54:25;;;;;;;48.10;32.28;;;5.40;99.90;;;;;;5015545;28;20030;-68
2022/11/26 01:56:52;;;;;;;52.15;33.95;;;5.40;99.90;;;;;;5017316;28;20108;-70
2022/11/26 01:59:28;;;;;;;58.03;36.25;;;5.40;99.90;;;;;;5017558;28;20388;-67
2022/11/26 02:01:57;;;;;;;100.55;58.20;;;5.50;99.90;;;;;;5017138;28;20026;-66
2022/11/26 02:04:33;;;;;;;96.78;58.53;;;5.40;99.90;;;;;;5017142;28;20037;-65
2022/11/26 02:06:59;;;;;;;91.75;54.65;;;5.20;99.90;;;;;;5017043;28;20032;-63
2022/11/26 02:09:26;;;;;;;71.82;44.05;;;5.10;99.90;;;;;;5016908;28;20105;-66
2022/11/26 02:11:53;;;;;;;61.65;40.42;;;5.10;99.90;;;;;;5016942;28;20022;-65
2022/11/26 02:14:43;;;;;;;68.63;42.47;;;5.20;99.90;;;;;;5017062;28;20476;-60
2022/11/26 02:17:21;;;;;;;54.85;34.55;;;5.30;99.90;;;;;;5016784;28;20546;-63
2022/11/26 02:20:17;;;;;;;50.10;33.38;;;5.30;99.90;;;;;;5048459;28;20416;-67
2022/11/26 02:22:48;;;;;;;55.17;34.47;;;5.30;99.90;;;;;;5016918;28;20388;-64
2022/11/26 02:25:37;;;;;;;62.55;38.50;;;5.30;99.90;;;;;;5017026;28;20387;-65
2022/11/26 02:28:50;;;;;;;50.28;32.17;;;5.30;99.90;;;;;;5016713;28;20018;-66
2022/11/26 02:31:27;;;;;;;38.17;25.92;;;5.20;99.90;;;;;;5015689;28;20034;-67
2022/11/26 02:34:23;;;;;;;44.45;28.40;;;5.20;99.90;;;;;;5016920;28;20022;-68
2022/11/26 02:37:04;;;;;;;47.85;32.88;;;5.20;99.90;;;;;;5016553;28;20380;-65
2022/11/26 02:39:30;;;;;;;35.80;24.42;;;5.20;99.90;;;;;;5016374;28;20018;-64
2022/11/26 02:41:59;;;;;;;33.53;23.02;;;5.10;99.90;;;;;;5016732;28;20088;-65
2022/11/26 02:44:29;;;;;;;39.20;26.23;;;5.10;99.90;;;;;;5016766;28;20391;-68
2022/11/26 02:47:07;;;;;;;37.10;23.80;;;5.10;99.90;;;;;;5016457;28;20026;-65
2022/11/26 02:49:34;;;;;;;34.83;24.02;;;5.10;99.90;;;;;;5016556;28;20053;-65
2022/11/26 02:52:03;;;;;;;29.33;20.33;;;5.10;99.90;;;;;;5016025;28;20079;-66
2022/11/26 02:54:31;;;;;;;28.05;19.23;;;5.10;99.90;;;;;;5016245;28;20033;-65
2022/11/26 02:56:58;;;;;;;24.85;17.85;;;5.10;99.90;;;;;;5016453;28;20033;-67
2022/11/26 02:59:24;;;;;;;23.55;16.83;;;5.10;99.90;;;;;;5016390;28;20369;-68
2022/11/26 03:02:14;;;;;;;26.25;17.67;;;5.10;99.90;;;;;;5016089;28;20033;-64
2022/11/26 03:04:45;;;;;;;24.42;17.80;;;5.10;99.90;;;;;;5015975;28;20029;-61
2022/11/26 03:07:13;;;;;;;24.60;17.00;;;5.10;99.90;;;;;;5015833;28;20029;-65
2022/11/26 03:09:59;;;;;;;22.65;15.95;;;5.10;99.90;;;;;;5016041;28;20026;-61
2022/11/26 03:12:25;;;;;;;18.73;13.15;;;5.10;99.90;;;;;;5015835;28;20028;-63
2022/11/26 03:14:51;;;;;;;20.55;15.05;;;5.10;99.90;;;;;;5016137;28;20128;-69
2022/11/26 03:17:17;;;;;;;19.40;13.95;;;5.10;99.90;;;;;;5015961;28;20508;-65
2022/11/26 03:19:43;;;;;;;25.67;17.90;;;5.10;99.90;;;;;;5015595;28;20041;-65
2022/11/26 03:22:10;;;;;;;22.25;15.65;;;5.10;99.90;;;;;;5015632;28;20038;-67
2022/11/26 03:24:36;;;;;;;24.63;17.52;;;5.00;99.90;;;;;;5015799;28;20472;-65
2022/11/26 03:27:02;;;;;;;19.35;14.63;;;5.00;99.90;;;;;;5015877;28;20022;-68
2022/11/26 03:29:28;;;;;;;20.58;14.80;;;5.00;99.90;;;;;;5015742;28;20468;-66
2022/11/26 03:31:54;;;;;;;21.45;14.45;;;4.90;99.90;;;;;;5015504;28;20036;-64
2022/11/26 03:34:19;;;;;;;21.65;15.55;;;4.90;99.90;;;;;;5015846;28;20109;-62
2022/11/26 03:36:45;;;;;;;17.73;13.82;;;4.90;99.90;;;;;;5015211;28;20534;-64
2022/11/26 03:39:11;;;;;;;18.25;12.63;;;4.90;99.90;;;;;;5015506;28;20026;-68
2022/11/26 03:41:36;;;;;;;21.20;14.00;;;4.90;99.90;;;;;;5015384;28;20498;-64
2022/11/26 03:44:02;;;;;;;21.40;15.27;;;4.90;99.90;;;;;;5015343;28;20076;-68
2022/11/26 03:46:28;;;;;;;15.98;12.13;;;4.90;99.90;;;;;;5015319;28;20464;-65
2022/11/26 03:48:53;;;;;;;16.85;12.75;;;4.80;99.90;;;;;;5015373;28;20033;-64
2022/11/26 03:51:19;;;;;;;17.38;12.63;;;4.80;99.90;;;;;;5014881;28;20022;-68
2022/11/26 03:53:45;;;;;;;15.80;11.45;;;4.80;99.90;;;;;;5015219;28;20033;-63
2022/11/26 03:56:11;;;;;;;20.23;13.30;;;4.80;99.90;;;;;;5015302;28;20065;-69
2022/11/26 03:58:37;;;;;;;18.35;12.57;;;4.80;99.90;;;;;;5015027;28;20054;-68
2022/11/26 04:01:10;;;;;;;18.10;12.90;;;4.80;99.90;;;;;;5015007;28;20181;-65
2022/11/26 04:03:36;;;;;;;20.33;14.10;;;4.80;99.90;;;;;;5014980;28;20496;-67
2022/11/26 04:06:02;;;;;;;15.80;12.05;;;4.80;99.90;;;;;;5014667;28;20535;-67
2022/11/26 04:08:28;;;;;;;26.60;18.42;;;4.80;99.90;;;;;;5015190;28;20365;-65
2022/11/26 04:10:54;;;;;;;30.98;19.65;;;4.90;99.90;;;;;;5014802;28;20029;-66
2022/11/26 04:13:19;;;;;;;23.45;16.95;;;4.80;99.90;;;;;;5014785;28;20072;-62
2022/11/26 04:15:47;;;;;;;19.23;13.93;;;4.70;99.90;;;;;;5014790;28;20520;-65
2022/11/26 04:18:12;;;;;;;18.27;13.48;;;4.70;99.90;;;;;;5014551;28;20048;-62
2022/11/26 04:20:38;;;;;;;20.83;14.43;;;4.60;99.90;;;;;;5014539;28;20050;-61
2022/11/26 04:23:04;;;;;;;18.38;13.65;;;4.60;99.90;;;;;;5014713;28;20103;-64
2022/11/26 04:25:30;;;;;;;23.00;15.13;;;4.70;99.90;;;;;;5014848;28;20033;-67
2022/11/26 04:27:56;;;;;;;30.20;21.90;;;4.70;99.90;;;;;;5014589;28;20376;-63
2022/11/26 04:30:22;;;;;;;23.17;15.95;;;4.70;99.90;;;;;;5014657;28;20109;-67
2022/11/26 04:32:47;;;;;;;29.23;18.92;;;4.60;99.90;;;;;;5014456;28;20099;-67
2022/11/26 04:35:13;;;;;;;28.83;17.52;;;4.70;99.90;;;;;;5014453;28;20053;-60
2022/11/26 04:37:39;;;;;;;18.85;14.38;;;4.60;99.90;;;;;;5014365;28;20460;-71
2022/11/26 04:40:05;;;;;;;17.80;13.32;;;4.60;99.90;;;;;;5014329;28;20022;-65
2022/11/26 04:42:32;;;;;;;27.58;18.02;;;4.60;99.90;;;;;;5014304;28;20395;-67
2022/11/26 04:44:57;;;;;;;60.58;36.88;;;4.70;99.90;;;;;;5014128;28;20030;-70
2022/11/26 04:47:23;;;;;;;47.25;29.70;;;4.50;99.90;;;;;;5014273;28;20036;-64
2022/11/26 04:49:49;;;;;;;74.97;42.75;;;4.50;99.90;;;;;;5012762;28;20080;-68
2022/11/26 04:52:14;;;;;;;59.10;34.67;;;4.50;99.90;;;;;;5014212;28;20058;-63
2022/11/26 04:54:40;;;;;;;47.65;30.33;;;4.50;99.90;;;;;;5014221;28;20021;-68
2022/11/26 04:57:05;;;;;;;50.55;30.73;;;4.60;99.90;;;;;;5014155;28;20468;-69
2022/11/26 04:59:31;;;;;;;45.10;28.95;;;4.60;99.90;;;;;;5014005;28;20080;-64
2022/11/26 05:01:58;;;;;;;42.63;29.15;;;4.60;99.90;;;;;;5013786;28;20053;-67
2022/11/26 05:04:24;;;;;;;59.80;36.67;;;4.60;99.90;;;;;;5013983;28;20026;-65
2022/11/26 05:06:50;;;;;;;51.65;32.75;;;4.60;99.90;;;;;;5014183;28;20030;-63
2022/11/26 05:09:16;;;;;;;38.28;25.73;;;4.60;99.90;;;;;;5013789;28;20044;-62
2022/11/26 05:11:41;;;;;;;37.40;24.80;;;4.60;99.90;;;;;;5013852;28;20029;-64
2022/11/26 05:14:07;;;;;;;53.25;32.90;;;4.60;99.90;;;;;;5013785;28;20026;-63
2022/11/26 05:16:33;;;;;;;55.35;34.40;;;4.60;99.90;;;;;;5013704;28;20026;-65
2022/11/26 05:18:58;;;;;;;41.70;27.67;;;4.50;99.90;;;;;;5013423;28;20092;-66
2022/11/26 05:21:24;;;;;;;41.45;28.10;;;4.50;99.90;;;;;;5013548;28;20443;-65
2022/11/26 05:23:50;;;;;;;38.55;26.23;;;4.50;99.90;;;;;;5013938;28;20117;-63
2022/11/26 05:26:15;;;;;;;33.72;22.73;;;4.50;99.90;;;;;;5013919;28;20028;-64
2022/11/26 05:28:41;;;;;;;33.78;22.80;;;4.50;99.90;;;;;;5013277;28;20028;-63
2022/11/26 05:31:07;;;;;;;31.83;21.92;;;4.60;99.90;;;;;;5013519;28;20021;-66
2022/11/26 05:33:32;;;;;;;25.27;19.05;;;4.60;99.90;;;;;;5013396;28;20373;-68
2022/11/26 05:35:58;;;;;;;25.30;18.17;;;4.60;99.90;;;;;;5013744;28;20022;-61
2022/11/26 05:38:24;;;;;;;26.80;18.13;;;4.50;99.90;;;;;;5013841;28;20079;-69
2022/11/26 05:40:50;;;;;;;24.80;17.15;;;4.50;99.90;;;;;;5013432;28;20033;-63
2022/11/26 05:43:16;;;;;;;22.42;15.75;;;4.50;99.90;;;;;;5013363;28;20026;-62
2022/11/26 05:45:41;;;;;;;22.83;16.52;;;4.50;99.90;;;;;;5013803;28;20025;-64
2022/11/26 05:48:07;;;;;;;19.85;13.88;;;4.50;99.90;;;;;;5013130;28;20480;-69
2022/11/26 05:50:33;;;;;;;19.73;13.82;;;4.50;99.90;;;;;;5013570;28;20115;-68
2022/11/26 05:52:59;;;;;;;17.80;12.88;;;4.50;99.90;;;;;;5013353;28;20038;-68
2022/11/26 05:55:24;;;;;;;24.10;16.00;;;4.50;99.90;;;;;;5013345;28;20496;-66
2022/11/26 05:57:50;;;;;;;20.40;14.88;;;4.50;99.90;;;;;;5013306;28;20488;-66
2022/11/26 06:00:16;;;;;;;18.48;12.90;;;4.50;99.90;;;;;;5013440;28;20026;-68
2022/11/26 06:02:42;;;;;;;16.42;12.60;;;4.40;99.90;;;;;;5013278;28;20365;-64
2022/11/26 06:05:08;;;;;;;21.35;14.50;;;4.40;99.90;;;;;;5013319;28;20026;-65
2022/11/26 06:07:34;;;;;;;25.67;17.85;;;4.30;99.90;;;;;;5013291;28;20022;-62
2022/11/26 06:10:00;;;;;;;27.05;15.95;;;4.40;99.90;;;;;;5013281;28;20091;-67
2022/11/26 06:12:26;;;;;;;66.95;41.15;;;4.40;99.90;;;;;;5013014;28;20480;-67
2022/11/26 06:14:51;;;;;;;86.32;52.33;;;4.40;99.90;;;;;;5013123;28;20026;-64
2022/11/26 06:17:17;;;;;;;46.85;33.08;;;4.30;99.90;;;;;;5013254;28;20053;-66
2022/11/26 06:19:42;;;;;;;60.45;37.60;;;4.30;99.90;;;;;;5012876;28;20381;-67
2022/11/26 06:22:08;;;;;;;60.28;39.97;;;4.40;99.90;;;;;;5013171;28;20030;-65
2022/11/26 06:24:34;;;;;;;51.28;35.30;;;4.40;99.90;;;;;;5013255;28;20029;-66
2022/11/26 06:26:59;;;;;;;92.68;54.20;;;4.50;99.90;;;;;;5013063;28;20029;-64
2022/11/26 06:29:25;;;;;;;70.20;43.35;;;4.50;99.90;;;;;;5012873;28;20023;-66
2022/11/26 06:31:51;;;;;;;110.40;71.63;;;4.50;99.90;;;;;;5012992;28;20104;-63
2022/11/26 06:34:16;;;;;;;72.45;49.03;;;4.40;99.90;;;;;;5013045;28;20030;-66
2022/11/26 06:36:42;;;;;;;75.05;51.28;;;4.40;99.90;;;;;;5013223;28;20033;-65
2022/11/26 06:39:11;;;;;;;90.22;57.38;;;4.50;99.90;;;;;;5013051;28;20022;-68
2022/11/26 06:41:37;;;;;;;132.98;80.78;;;4.60;99.90;;;;;;5015693;28;20145;-66
2022/11/26 06:44:03;;;;;;;142.00;85.05;;;4.60;99.90;;;;;;5016273;28;20049;-63
2022/11/26 06:46:28;;;;;;;119.88;71.80;;;4.60;99.90;;;;;;5016629;28;20061;-61
2022/11/26 06:48:54;;;;;;;122.53;77.05;;;4.60;99.90;;;;;;5016519;28;20022;-66
2022/11/26 06:51:20;;;;;;;129.35;76.40;;;4.70;99.90;;;;;;5016212;28;20076;-63
2022/11/26 06:53:47;;;;;;;137.38;82.30;;;4.70;99.90;;;;;;5016583;28;20076;-67
2022/11/26 06:56:15;;;;;;;137.73;82.22;;;4.70;99.90;;;;;;5016310;28;20057;-68
2022/11/26 06:58:41;;;;;;;89.57;56.67;;;4.80;99.90;;;;;;5015998;28;20101;-66
2022/11/26 07:01:12;;;;;;;93.03;54.67;;;4.80;99.90;;;;;;5016295;28;20097;-68
2022/11/26 07:03:38;;;;;;;89.95;57.25;;;4.90;99.90;;;;;;5016047;28;20022;-64
2022/11/26 07:06:04;;;;;;;164.88;105.07;;;4.90;99.90;;;;;;5016256;28;20110;-63
2022/11/26 07:08:29;;;;;;;166.18;108.63;;;4.90;99.90;;;;;;5016061;28;20025;-64
2022/11/26 07:10:55;;;;;;;170.95;116.85;;;4.90;99.90;;;;;;5015971;28;20022;-64
2022/11/26 07:13:21;;;;;;;151.30;104.03;;;4.90;99.90;;;;;;5015756;28;20033;-68
2022/11/26 07:15:46;;;;;;;146.15;99.22;;;4.80;99.90;;;;;;5015848;28;20358;-68
2022/11/26 07:18:12;;;;;;;132.43;90.55;;;4.90;99.90;;;;;;5015929;28;20075;-65
2022/11/26 07:20:38;;;;;;;105.07;74.30;;;5.00;99.90;;;;;;5015611;28;20115;-67
2022/11/26 07:23:03;;;;;;;103.20;72.10;;;5.10;99.90;;;;;;5015867;28;20038;-67
2022/11/26 07:25:30;;;;;;;90.85;64.70;;;5.30;99.90;;;;;;5015773;28;20100;-67
2022/11/26 07:27:56;;;;;;;104.78;70.60;;;5.50;99.90;;;;;;5015513;28;20018;-62
2022/11/26 07:30:22;;;;;;;95.95;65.93;;;6.00;99.90;;;;;;5015615;28;20026;-65
2022/11/26 07:32:47;;;;;;;78.57;56.63;;;6.50;99.90;;;;;;5015556;28;20096;-65
2022/11/26 07:35:13;;;;;;;91.18;64.00;;;7.10;99.90;;;;;;5015639;28;20066;-65
2022/11/26 07:37:38;;;;;;;101.05;68.95;;;7.60;99.90;;;;;;5015393;28;20088;-61
2022/11/26 07:40:05;;;;;;;83.15;59.97;;;7.90;99.90;;;;;;5015533;28;20038;-67
2022/11/26 07:42:32;;;;;;;99.85;67.72;;;8.10;99.90;;;;;;5015342;28;20026;-63
2022/11/26 07:44:58;;;;;;;97.70;69.07;;;8.30;99.90;;;;;;5015257;28;20030;-68
2022/11/26 07:47:24;;;;;;;71.50;55.15;;;8.50;99.10;;;;;;5015468;28;20026;-64
2022/11/26 07:49:49;;;;;;;69.32;53.85;;;8.60;99.90;;;;;;5015265;28;20026;-69
2022/11/26 07:52:15;;;;;;;70.80;54.58;;;8.60;97.70;;;;;;5046509;28;20084;-69
2022/11/26 07:54:40;;;;;;;62.55;48.92;;;8.80;99.00;;;;;;5015298;28;20026;-66
2022/11/26 07:57:06;;;;;;;87.57;64.80;;;9.30;98.00;;;;;;5014939;28;20022;-63
2022/11/26 07:59:32;;;;;;;83.00;66.00;;;9.50;92.40;;;;;;5015312;28;20029;-70
2022/11/26 08:01:57;;;;;;;105.05;78.38;;;9.20;91.70;;;;;;5015071;28;20037;-67
2022/11/26 08:04:23;;;;;;;100.93;76.65;;;9.30;92.70;;;;;;5015223;28;20527;-61
2022/11/26 08:06:49;;;;;;;91.70;68.47;;;9.50;90.50;;;;;;5014991;28;20494;-70
2022/11/26 08:09:14;;;;;;;87.55;63.42;;;9.50;90.60;;;;;;5014744;28;20029;-62
2022/11/26 08:11:40;;;;;;;80.68;60.33;;;9.30;91.70;;;;;;5014686;28;20025;-63
2022/11/26 08:14:10;;;;;;;81.30;61.22;;;9.10;95.30;;;;;;5014889;28;20030;-66
2022/11/26 08:16:36;;;;;;;117.28;81.60;;;9.00;95.40;;;;;;5014993;28;20022;-65
2022/11/26 08:19:06;;;;;;;85.03;62.33;;;8.90;95.20;;;;;;5014770;28;20045;-65
2022/11/26 08:21:32;;;;;;;89.25;65.30;;;8.70;96.70;;;;;;5014787;28;20046;-66
2022/11/26 08:23:58;;;;;;;85.93;61.95;;;8.70;97.00;;;;;;5014578;28;20018;-62
2022/11/26 08:26:25;;;;;;;82.13;61.75;;;8.70;97.30;;;;;;5014360;28;20121;-64
2022/11/26 08:28:51;;;;;;;109.50;83.28;;;8.80;97.80;;;;;;5014619;28;20026;-68
2022/11/26 08:31:17;;;;;;;118.00;92.47;;;8.60;97.60;;;;;;5014349;28;20460;-66
2022/11/26 08:33:43;;;;;;;106.13;81.75;;;8.40;98.70;;;;;;5014437;28;20080;-69
2022/11/26 08:36:10;;;;;;;119.10;85.90;;;8.20;99.90;;;;;;5014492;28;20034;-66
2022/11/26 08:38:37;;;;;;;108.35;81.45;;;8.40;99.90;;;;;;5014294;28;20468;-65
2022/11/26 08:41:05;;;;;;;105.70;73.15;;;8.60;99.70;;;;;;5014439;28;20021;-67
2022/11/26 08:43:34;;;;;;;100.72;72.78;;;8.60;99.70;;;;;;5014400;28;20025;-69
2022/11/26 08:45:59;;;;;;;84.18;62.33;;;8.70;99.90;;;;;;5014148;28;20022;-65
2022/11/26 08:48:27;;;;;;;88.43;64.63;;;8.90;99.90;;;;;;5014418;28;20045;-62
2022/11/26 08:51:01;;;;;;;87.07;63.60;;;9.00;99.90;;;;;;5014189;28;20465;-64
2022/11/26 08:53:28;;;;;;;94.97;66.25;;;8.80;99.90;;;;;;5014111;28;20040;-66
2022/11/26 08:55:59;;;;;;;80.45;64.03;;;8.60;99.90;;;;;;5014030;28;20100;-64
2022/11/26 08:58:24;;;;;;;78.18;60.47;;;8.50;99.90;;;;;;5014000;28;20026;-70
2022/11/26 09:00:50;;;;;;;57.83;45.92;;;8.40;99.90;;;;;;5013868;28;20017;-64
2022/11/26 09:03:16;;;;;;;64.15;50.03;;;8.40;99.90;;;;;;5013192;28;20036;-68
2022/11/26 09:05:41;;;;;;;48.00;40.63;;;8.30;99.90;;;;;;5013931;28;20022;-64
2022/11/26 09:08:07;;;;;;;50.38;42.13;;;8.30;99.90;;;;;;5013855;28;20026;-62
2022/11/26 09:10:32;;;;;;;52.72;42.70;;;8.60;99.90;;;;;;5013840;28;20097;-70
2022/11/26 09:12:58;;;;;;;51.35;41.72;;;8.90;99.90;;;;;;5013790;28;20492;-70
2022/11/26 09:15:24;;;;;;;48.25;37.92;;;9.10;99.90;;;;;;5013719;28;20033;-66
2022/11/26 09:17:49;;;;;;;44.00;37.35;;;9.20;99.90;;;;;;5013846;28;20018;-70
2022/11/26 09:20:15;;;;;;;40.03;33.47;;;9.30;99.90;;;;;;5013648;28;20046;-67
2022/11/26 09:22:42;;;;;;;36.92;30.85;;;9.40;99.90;;;;;;5013653;28;20053;-67
2022/11/26 09:25:08;;;;;;;39.22;32.00;;;9.60;99.90;;;;;;5013404;28;20030;-66
2022/11/26 09:27:34;;;;;;;44.15;36.28;;;9.70;99.90;;;;;;5013746;28;20072;-68
2022/11/26 09:30:00;;;;;;;48.40;40.30;;;9.80;99.90;;;;;;5013850;28;20045;-63
2022/11/26 09:32:26;;;;;;;65.35;49.35;;;9.90;99.40;;;;;;5013509;28;20034;-67
2022/11/26 09:34:52;;;;;;;79.32;59.47;;;10.00;99.90;;;;;;5013500;28;20026;-65
2022/11/26 09:37:17;;;;;;;81.30;63.80;;;10.20;99.90;;;;;;5013637;28;20068;-69
2022/11/26 09:39:43;;;;;;;92.13;67.10;;;10.30;99.90;;;;;;5013249;28;20022;-67
2022/11/26 09:42:33;;;;;;;81.35;64.18;;;10.40;98.50;;;;;;5013547;28;20029;-70
2022/11/26 09:45:26;;;;;;;68.47;52.28;;;10.50;98.00;;;;;;5013364;28;20428;-66
2022/11/26 09:47:53;;;;;;;53.97;43.00;;;10.50;98.70;;;;;;5013478;28;20026;-67
2022/11/26 09:50:26;;;;;;;44.97;36.00;;;10.50;96.20;;;;;;5013391;28;20030;-66
2022/11/26 09:52:59;;;;;;;41.97;32.88;;;10.50;94.00;;;;;;5013176;28;20037;-67
2022/11/26 09:55:37;;;;;;;38.70;31.85;;;10.40;96.10;;;;;;5013346;28;20114;-67
2022/11/26 09:58:11;;;;;;;39.22;32.40;;;10.50;97.30;;;;;;5013373;28;20030;-63
2022/11/26 10:00:48;;;;;;;42.63;34.90;;;10.60;95.70;;;;;;5013315;28;20026;-67
2022/11/26 10:03:16;;;;;;;71.90;49.30;;;10.50;94.90;;;;;;5013225;28;20034;-68
2022/11/26 10:05:55;;;;;;;59.53;42.85;;;10.50;94.80;;;;;;5013304;28;20046;-69
2022/11/26 10:08:34;;;;;;;58.42;42.40;;;10.50;94.70;;;;;;5013300;28;20028;-64
2022/11/26 10:11:15;;;;;;;77.28;56.03;;;10.30;97.00;;;;;;5013209;28;20022;-70
2022/11/26 10:14:05;;;;;;;68.57;49.40;;;10.20;97.20;;;;;;5013255;28;20028;-65
2022/11/26 10:16:45;;;;;;;75.57;50.92;;;10.20;97.70;;;;;;5016990;28;20472;-66
2022/11/26 10:19:38;;;;;;;77.32;53.40;;;10.30;96.40;;;;;;5016886;28;20029;-69
2022/11/26 10:22:19;;;;;;;86.03;56.03;;;10.20;97.80;;;;;;5016783;28;20058;-68
2022/11/26 10:24:48;;;;;;;82.72;53.17;;;10.00;98.30;;;;;;5016879;28;20380;-63
2022/11/26 10:27:17;;;;;;;84.20;54.63;;;9.80;99.50;;;;;;5017006;28;20383;-67
2022/11/26 10:29:49;;;;;;;63.88;45.25;;;9.90;99.50;;;;;;5017164;28;20193;-67
2022/11/26 10:32:30;;;;;;;59.42;41.35;;;9.80;99.90;;;;;;5016549;28;20040;-66
2022/11/26 10:34:57;;;;;;;53.53;38.75;;;9.80;99.90;;;;;;5016924;28;20025;-61
2022/11/26 10:37:26;;;;;;;53.80;40.30;;;9.90;99.90;;;;;;5016426;28;20088;-66
2022/11/26 10:40:16;;;;;;;62.58;44.60;;;9.90;99.90;;;;;;5016735;28;20053;-71
2022/11/26 10:42:47;;;;;;;61.70;45.22;;;10.10;99.90;;;;;;5016503;28;20022;-70
2022/11/26 10:45:20;;;;;;;55.90;41.30;;;10.00;99.90;;;;;;5016715;28;20053;-67
2022/11/26 10:47:45;;;;;;;52.50;40.55;;;10.10;99.90;;;;;;5015390;28;20400;-66
2022/11/26 10:50:20;;;;;;;46.25;36.50;;;10.20;99.90;;;;;;5016358;28;20018;-66
2022/11/26 10:52:47;;;;;;;49.85;37.25;;;10.30;99.90;;;;;;5016169;28;20038;-68
2022/11/26 10:55:22;;;;;;;40.03;32.22;;;10.40;99.90;;;;;;5016500;28;20376;-63
2022/11/26 10:57:52;;;;;;;42.92;34.75;;;10.50;99.90;;;;;;5016336;28;20026;-70
2022/11/26 11:00:44;;;;;;;44.20;35.70;;;10.70;99.90;;;;;;5016157;28;20026;-67
2022/11/26 11:03:24;;;;;;;43.13;35.10;;;10.90;99.90;;;;;;5016395;28;20022;-64
2022/11/26 11:06:08;;;;;;;55.72;40.05;;;11.00;99.90;;;;;;5015957;28;20061;-67
2022/11/26 11:08:33;;;;;;;57.15;40.90;;;11.00;98.60;;;;;;5016381;28;20026;-66
2022/11/26 11:11:01;;;;;;;61.03;44.00;;;11.00;98.50;;;;;;5015958;28;20030;-63
2022/11/26 11:13:48;;;;;;;48.08;37.13;;;11.10;97.70;;;;;;5015975;28;20096;-60
2022/11/26 11:16:26;;;;;;;46.80;35.28;;;11.20;98.40;;;;;;5016176;28;20030;-65
2022/11/26 11:18:56;;;;;;;49.40;35.33;;;11.20;96.70;;;;;;5016176;28;20030;-63
2022/11/26 11:21:33;;;;;;;57.15;38.72;;;11.20;99.90;;;;;;5015610;28;20042;-67
2022/11/26 11:24:20;;;;;;;44.28;34.85;;;11.20;99.80;;;;;;5015962;28;20033;-68
2022/11/26 11:26:52;;;;;;;53.00;39.05;;;11.20;99.90;;;;;;5015040;28;20108;-68
2022/11/26 11:29:28;;;;;;;56.67;39.88;;;11.10;99.90;;;;;;5016012;28;20451;-64
2022/11/26 11:31:56;;;;;;;54.65;38.47;;;10.80;99.90;;;;;;5015526;28;20064;-65
2022/11/26 11:34:43;;;;;;;46.40;33.25;;;10.50;99.90;;;;;;5015792;28;20030;-65
2022/11/26 11:37:16;;;;;;;50.83;34.17;;;10.60;99.90;;;;;;5015839;28;20026;-66
2022/11/26 11:39:42;;;;;;;94.35;51.83;;;10.90;99.90;;;;;;5015461;28;20603;-65
2022/11/26 11:42:27;;;;;;;85.97;51.75;;;11.00;99.90;;;;;;5015510;28;20105;-65
2022/11/26 11:44:53;;;;;;;103.80;59.70;;;11.20;99.90;;;;;;5015349;28;20473;-62
2022/11/26 11:47:37;;;;;;;90.22;57.88;;;11.20;99.90;;;;;;5015630;28;20026;-65
2022/11/26 11:50:15;;;;;;;78.85;52.65;;;11.30;99.90;;;;;;5015138;28;20496;-65
2022/11/26 11:52:46;;;;;;;85.60;52.17;;;11.20;99.80;;;;;;5015252;28;20030;-62
2022/11/26 11:55:53;;;;;;;92.68;54.55;;;11.10;99.90;;;;;;5015250;28;20504;-70
2022/11/26 11:58:24;;;;;;;103.18;57.63;;;10.90;99.90;;;;;;5014817;28;20034;-67
2022/11/26 12:00:59;;;;;;;99.00;57.55;;;10.70;99.90;;;;;;5015069;28;20022;-69
2022/11/26 12:03:38;;;;;;;91.55;51.58;;;10.60;99.90;;;;;;5015075;28;20028;-66
2022/11/26 12:06:19;;;;;;;117.57;56.30;;;10.70;99.90;;;;;;5014706;28;20026;-67
2022/11/26 12:08:58;;;;;;;95.70;52.65;;;10.70;99.90;;;;;;5015036;28;20110;-64
2022/11/26 12:11:42;;;;;;;138.85;64.43;;;10.80;99.90;;;;;;5014809;28;20119;-69
2022/11/26 12:14:27;;;;;;;114.90;59.53;;;10.60;99.90;;;;;;5014823;28;20112;-65
2022/11/26 12:17:00;;;;;;;123.10;65.43;;;10.70;99.90;;;;;;5014917;28;20026;-66
2022/11/26 12:19:35;;;;;;;120.47;65.43;;;10.60;99.90;;;;;;5014475;28;20037;-66
2022/11/26 12:22:37;;;;;;;114.03;61.53;;;10.80;99.90;;;;;;5014738;28;20133;-67
2022/11/26 12:25:36;;;;;;;158.70;76.15;;;10.90;99.90;;;;;;5014094;28;20123;-67
2022/11/26 12:28:10;;;;;;;190.18;95.43;;;10.90;99.90;;;;;;5014596;28;20024;-62
2022/11/26 12:30:43;;;;;;;121.88;69.85;;;10.60;99.90;;;;;;5014586;28;20018;-65
2022/11/26 12:33:41;;;;;;;122.15;68.38;;;10.50;99.90;;;;;;5046326;28;20400;-62
2022/11/26 12:36:19;;;;;;;122.22;72.63;;;10.70;99.90;;;;;;5014520;28;20423;-62
2022/11/26 12:39:16;;;;;;;138.80;73.38;;;10.80;99.90;;;;;;5013452;28;20041;-69
2022/11/26 12:42:01;;;;;;;108.97;64.20;;;10.90;99.90;;;;;;5014321;28;20337;-65
2022/11/26 12:44:38;;;;;;;104.95;60.55;;;11.00;99.90;;;;;;5014338;28;20029;-67
2022/11/26 12:47:29;;;;;;;102.82;63.80;;;11.00;99.90;;;;;;5014491;28;20052;-63
2022/11/26 12:50:04;;;;;;;118.47;62.63;;;11.00;99.90;;;;;;5014050;28;20464;-66